createdAt,value
2023-06-26T00:00:24.442Z,97190.41
2023-06-26T00:02:27.284Z,97196.53
2023-06-26T00:04:29.931Z,97188.41
2023-06-26T00:06:32.570Z,97190.25
2023-06-26T00:08:35.196Z,97195.84
2023-06-26T00:10:39.758Z,97194.19
2023-06-26T00:12:42.659Z,97192.63
2023-06-26T00:14:45.266Z,97194.63
2023-06-26T00:16:47.921Z,97199.25
2023-06-26T00:18:50.522Z,97195.91
2023-06-26T00:20:53.149Z,97196.97
2023-06-26T00:22:59.865Z,97199.78
2023-06-26T00:25:03.736Z,97198.44
2023-06-26T00:27:08.191Z,97198.69
2023-06-26T00:29:10.949Z,97198.03
2023-06-26T00:31:13.611Z,97201.66
2023-06-26T00:33:16.580Z,97195.63
2023-06-26T00:35:19.291Z,97195.09
2023-06-26T00:37:23.070Z,97205.19
2023-06-26T00:39:26.847Z,97197.66
2023-06-26T00:41:29.618Z,97195.28
2023-06-26T00:43:33.587Z,97209.72
2023-06-26T00:45:43.203Z,97200.19
2023-06-26T00:47:46.658Z,97200.34
2023-06-26T00:49:49.569Z,97197.94
2023-06-26T00:51:52.430Z,97205.13
2023-06-26T00:53:55.195Z,97194.75
2023-06-26T00:55:57.936Z,97201.06
2023-06-26T00:58:00.645Z,97199.38
2023-06-26T01:00:06.496Z,97198.00
2023-06-26T01:02:10.820Z,97191.13
2023-06-26T01:04:18.823Z,97196.44
2023-06-26T01:06:23.842Z,97195.06
2023-06-26T01:08:27.449Z,97194.38
2023-06-26T01:10:30.370Z,97193.66
2023-06-26T01:12:33.906Z,97197.44
2023-06-26T01:14:37.182Z,97192.25
2023-06-26T01:16:42.974Z,97190.75
2023-06-26T01:18:46.640Z,97194.50
2023-06-26T01:20:50.203Z,97193.81
2023-06-26T01:23:07.710Z,97195.09
2023-06-26T01:25:18.917Z,97193.50
2023-06-26T01:27:24.763Z,97188.75
2023-06-26T01:29:28.102Z,97196.31
2023-06-26T01:31:32.421Z,97182.31
2023-06-26T01:33:35.408Z,97188.75
2023-06-26T01:35:38.891Z,97182.88
2023-06-26T01:37:41.660Z,97190.03
2023-06-26T01:39:44.259Z,97185.69
2023-06-26T01:41:47.471Z,97173.53
2023-06-26T01:44:06.210Z,97170.16
2023-06-26T01:46:13.621Z,97170.31
2023-06-26T01:48:22.630Z,97179.53
2023-06-26T01:50:28.651Z,97171.00
2023-06-26T01:52:42.756Z,97170.28
2023-06-26T01:54:54.881Z,97166.09
2023-06-26T01:56:58.789Z,97171.66
2023-06-26T01:59:06.861Z,97170.00
2023-06-26T02:01:09.640Z,97171.97
2023-06-26T02:03:12.406Z,97178.13
2023-06-26T02:05:15.821Z,97172.09
2023-06-26T02:07:18.596Z,97167.78
2023-06-26T02:09:21.240Z,97169.59
2023-06-26T02:11:23.908Z,97167.91
2023-06-26T02:13:26.539Z,97176.16
2023-06-26T02:15:30.519Z,97165.94
2023-06-26T02:17:33.273Z,97167.59
2023-06-26T02:19:35.902Z,97169.31
2023-06-26T02:21:39.567Z,97173.91
2023-06-26T02:23:42.293Z,97173.91
2023-06-26T02:25:44.942Z,97176.56
2023-06-26T02:27:47.567Z,97182.03
2023-06-26T02:29:50.219Z,97180.47
2023-06-26T02:31:54.190Z,97174.44
2023-06-26T02:33:56.827Z,97165.81
2023-06-26T02:35:59.516Z,97169.41
2023-06-26T02:38:02.181Z,97174.88
2023-06-26T02:40:06.131Z,97178.78
2023-06-26T02:42:08.793Z,97180.97
2023-06-26T02:44:12.714Z,97181.53
2023-06-26T02:46:15.453Z,97184.31
2023-06-26T02:48:19.463Z,97178.16
2023-06-26T02:50:22.071Z,97184.56
2023-06-26T02:52:24.729Z,97183.06
2023-06-26T02:54:27.387Z,97180.66
2023-06-26T02:56:30.432Z,97186.22
2023-06-26T02:58:33.088Z,97189.03
2023-06-26T03:00:35.740Z,97190.28
2023-06-26T03:02:38.460Z,97186.78
2023-06-26T03:04:44.266Z,97194.03
2023-06-26T03:06:47.009Z,97202.00
2023-06-26T03:08:49.660Z,97198.38
2023-06-26T03:10:52.286Z,97202.00
2023-06-26T03:12:54.888Z,97200.34
2023-06-26T03:14:57.512Z,97194.31
2023-06-26T03:17:04.352Z,97194.47
2023-06-26T03:19:07.123Z,97195.56
2023-06-26T03:21:13.428Z,97193.88
2023-06-26T03:23:16.260Z,97199.44
2023-06-26T03:25:18.992Z,97194.13
2023-06-26T03:27:21.619Z,97190.94
2023-06-26T03:29:24.230Z,97201.66
2023-06-26T03:31:26.888Z,97198.31
2023-06-26T03:33:29.566Z,97198.56
2023-06-26T03:35:32.240Z,97197.84
2023-06-26T03:37:36.151Z,97190.88
2023-06-26T03:39:38.829Z,97195.47
2023-06-26T03:41:41.453Z,97191.41
2023-06-26T03:43:44.090Z,97195.16
2023-06-26T03:45:47.634Z,97193.63
2023-06-26T03:47:50.945Z,97194.84
2023-06-26T03:49:53.598Z,97203.78
2023-06-26T03:51:56.324Z,97202.25
2023-06-26T03:54:00.329Z,97199.00
2023-06-26T03:56:03.086Z,97197.44
2023-06-26T03:58:05.951Z,97200.09
2023-06-26T04:00:10.168Z,97196.00
2023-06-26T04:02:13.912Z,97201.19
2023-06-26T04:04:16.807Z,97202.06
2023-06-26T04:06:19.670Z,97202.88
2023-06-26T04:08:22.322Z,97192.84
2023-06-26T04:10:26.322Z,97204.19
2023-06-26T04:12:29.367Z,97196.06
2023-06-26T04:14:32.057Z,97199.84
2023-06-26T04:16:34.634Z,97204.19
2023-06-26T04:18:37.194Z,97201.78
2023-06-26T04:20:41.759Z,97203.84
2023-06-26T04:22:44.390Z,97206.25
2023-06-26T04:24:47.256Z,97199.00
2023-06-26T04:26:51.191Z,97199.59
2023-06-26T04:28:53.795Z,97201.38
2023-06-26T04:30:56.453Z,97200.31
2023-06-26T04:33:00.119Z,97199.19
2023-06-26T04:35:04.091Z,97201.59
2023-06-26T04:37:06.812Z,97198.94
2023-06-26T04:39:09.462Z,97203.97
2023-06-26T04:41:12.157Z,97204.69
2023-06-26T04:43:16.242Z,97202.41
2023-06-26T04:45:19.628Z,97203.84
2023-06-26T04:47:22.254Z,97201.19
2023-06-26T04:49:25.264Z,97197.53
2023-06-26T04:51:29.932Z,97203.44
2023-06-26T04:53:32.706Z,97204.16
2023-06-26T04:55:35.949Z,97198.97
2023-06-26T04:57:40.006Z,97201.50
2023-06-26T04:59:43.965Z,97201.34
2023-06-26T05:01:49.114Z,97201.22
2023-06-26T05:03:51.946Z,97194.94
2023-06-26T05:05:55.026Z,97189.66
2023-06-26T05:07:58.111Z,97189.53
2023-06-26T05:10:00.736Z,97183.97
2023-06-26T05:12:04.118Z,97186.50
2023-06-26T05:14:08.233Z,97180.31
2023-06-26T05:16:12.309Z,97187.59
2023-06-26T05:18:14.954Z,97179.63
2023-06-26T05:20:17.735Z,97181.31
2023-06-26T05:22:21.608Z,97186.63
2023-06-26T05:24:25.239Z,97192.09
2023-06-26T05:26:28.513Z,97189.72
2023-06-26T05:28:32.348Z,97190.88
2023-06-26T05:30:36.790Z,97186.50
2023-06-26T05:32:42.507Z,97195.31
2023-06-26T05:34:46.372Z,97192.25
2023-06-26T05:36:52.564Z,97200.34
2023-06-26T05:38:57.510Z,97190.59
2023-06-26T05:41:00.741Z,97194.09
2023-06-26T05:43:04.136Z,97200.09
2023-06-26T05:45:07.642Z,97193.53
2023-06-26T05:47:10.559Z,97195.34
2023-06-26T05:49:15.451Z,97198.44
2023-06-26T05:51:18.753Z,97202.94
2023-06-26T05:53:22.094Z,97201.38
2023-06-26T05:55:25.700Z,97202.94
2023-06-26T05:57:29.917Z,97201.78
2023-06-26T05:59:34.207Z,97204.16
2023-06-26T06:01:37.650Z,97200.13
2023-06-26T06:03:41.004Z,97194.53
2023-06-26T06:05:45.097Z,97204.78
2023-06-26T06:07:47.899Z,97205.47
2023-06-26T06:09:50.548Z,97197.13
2023-06-26T06:11:53.162Z,97198.66
2023-06-26T06:13:55.748Z,97200.91
2023-06-26T06:15:58.619Z,97197.28
2023-06-26T06:18:01.405Z,97187.06
2023-06-26T06:20:05.011Z,97199.09
2023-06-26T06:22:08.969Z,97194.34
2023-06-26T06:24:12.030Z,97189.47
2023-06-26T06:26:14.682Z,97195.50
2023-06-26T06:28:18.311Z,97192.13
2023-06-26T06:30:39.245Z,97199.81
2023-06-26T06:32:46.566Z,97195.19
2023-06-26T06:34:49.209Z,97197.16
2023-06-26T06:36:51.987Z,97196.06
2023-06-26T06:38:56.062Z,97188.75
2023-06-26T06:40:58.680Z,97198.69
2023-06-26T06:43:01.308Z,97189.06
2023-06-26T06:45:04.582Z,97188.63
2023-06-26T06:47:07.416Z,97192.00
2023-06-26T06:49:10.352Z,97187.22
2023-06-26T06:51:12.919Z,97196.47
2023-06-26T06:53:15.606Z,97194.22
2023-06-26T06:55:19.745Z,97193.25
2023-06-26T06:57:22.717Z,97195.78
2023-06-26T06:59:25.343Z,97194.66
2023-06-26T07:01:27.938Z,97194.38
2023-06-26T07:03:30.630Z,97194.09
2023-06-26T07:05:33.317Z,97186.78
2023-06-26T07:07:37.048Z,97186.53
2023-06-26T07:09:40.171Z,97189.75
2023-06-26T07:11:44.123Z,97196.19
2023-06-26T07:13:46.797Z,97189.84
2023-06-26T07:15:49.842Z,97185.09
2023-06-26T07:17:52.619Z,97190.25
2023-06-26T07:19:55.194Z,97186.03
2023-06-26T07:21:57.819Z,97190.09
2023-06-26T07:24:00.460Z,97191.78
2023-06-26T07:26:03.087Z,97188.41
2023-06-26T07:28:12.697Z,97192.81
2023-06-26T07:30:15.308Z,97192.81
2023-06-26T07:32:18.072Z,97196.19
2023-06-26T07:34:20.785Z,97193.66
2023-06-26T07:36:23.978Z,97198.13
2023-06-26T07:38:26.589Z,97197.16
2023-06-26T07:40:29.298Z,97205.28
2023-06-26T07:42:31.948Z,97197.41
2023-06-26T07:44:35.929Z,97202.63
2023-06-26T07:46:55.239Z,97209.72
2023-06-26T07:49:07.529Z,97197.22
2023-06-26T07:51:14.561Z,97202.09
2023-06-26T07:53:36.113Z,97200.84
2023-06-26T07:56:00.728Z,97206.88
2023-06-26T07:58:12.024Z,97197.28
2023-06-26T08:00:21.672Z,97200.19
2023-06-26T08:05:04.515Z,97207.34
2023-06-26T08:09:44.738Z,97204.41
2023-06-26T08:14:24.476Z,97190.47
2023-06-26T08:16:30.578Z,97195.47
2023-06-26T08:18:36.302Z,97195.88
2023-06-26T08:20:41.551Z,97199.38
2023-06-26T08:22:44.806Z,97186.91
2023-06-26T08:24:48.166Z,97185.75
2023-06-26T08:26:51.601Z,97176.28
2023-06-26T08:28:58.358Z,97175.75
2023-06-26T08:31:02.941Z,97179.94
2023-06-26T08:33:11.752Z,97181.16
2023-06-26T08:35:17.065Z,97182.53
2023-06-26T08:37:20.317Z,97178.50
2023-06-26T08:39:23.057Z,97178.94
2023-06-26T08:41:27.801Z,97178.81
2023-06-26T08:43:31.515Z,97186.56
2023-06-26T08:45:40.403Z,97177.84
2023-06-26T08:47:46.616Z,97179.25
2023-06-26T08:50:04.171Z,97173.97
2023-06-26T08:52:15.637Z,97177.72
2023-06-26T08:54:19.358Z,97181.50
2023-06-26T08:56:24.108Z,97178.75
2023-06-26T08:58:26.838Z,97169.72
2023-06-26T09:00:38.726Z,97176.91
2023-06-26T09:02:46.817Z,97181.94
2023-06-26T09:04:51.361Z,97169.59
2023-06-26T09:07:04.438Z,97175.31
2023-06-26T09:09:08.778Z,97165.84
2023-06-26T09:11:12.994Z,97167.53
2023-06-26T09:13:35.367Z,97166.69
2023-06-26T09:15:53.161Z,97164.22
2023-06-26T09:18:04.808Z,97172.09
2023-06-26T09:20:12.536Z,97164.22
2023-06-26T09:22:28.032Z,97168.78
2023-06-26T09:24:35.434Z,97164.28
2023-06-26T09:26:41.889Z,97172.81
2023-06-26T09:28:52.611Z,97159.84
2023-06-26T09:31:08.993Z,97162.00
2023-06-26T09:33:17.515Z,97160.53
2023-06-26T09:35:43.021Z,97158.75
2023-06-26T09:38:09.099Z,97160.41
2023-06-26T09:40:16.665Z,97165.28
2023-06-26T09:42:38.977Z,97156.47
2023-06-26T09:45:03.413Z,97146.44
2023-06-26T09:47:16.911Z,97149.22
2023-06-26T09:49:20.898Z,97148.72
2023-06-26T09:51:24.986Z,97152.41
2023-06-26T09:53:30.294Z,97144.56
2023-06-26T09:55:36.978Z,97145.59
2023-06-26T09:57:40.440Z,97141.09
2023-06-26T09:59:45.569Z,97138.75
2023-06-26T10:01:48.641Z,97133.88
2023-06-26T10:03:51.619Z,97139.41
2023-06-26T10:05:55.688Z,97138.25
2023-06-26T10:07:58.943Z,97132.06
2023-06-26T10:10:04.890Z,97139.78
2023-06-26T10:12:13.176Z,97136.47
2023-06-26T10:14:18.414Z,97141.97
2023-06-26T10:16:27.859Z,97132.13
2023-06-26T10:18:33.747Z,97143.53
2023-06-26T10:20:36.761Z,97141.84
2023-06-26T10:22:44.861Z,97136.84
2023-06-26T10:24:49.628Z,97146.69
2023-06-26T10:26:59.669Z,97141.00
2023-06-26T10:29:03.931Z,97139.16
2023-06-26T10:31:10.245Z,97132.47
2023-06-26T10:33:14.540Z,97131.13
2023-06-26T10:35:17.505Z,97128.13
2023-06-26T10:37:20.203Z,97143.34
2023-06-26T10:39:22.954Z,97142.50
2023-06-26T10:41:26.995Z,97145.00
2023-06-26T10:43:33.066Z,97141.81
2023-06-26T10:45:36.309Z,97147.38
2023-06-26T10:47:40.698Z,97148.19
2023-06-26T10:49:58.165Z,97138.63
2023-06-26T10:52:13.736Z,97146.81
2023-06-26T10:54:17.518Z,97155.22
2023-06-26T10:56:20.202Z,97155.38
2023-06-26T10:58:30.345Z,97149.34
2023-06-26T11:00:34.454Z,97144.16
2023-06-26T11:02:50.066Z,97153.53
2023-06-26T11:05:02.059Z,97147.47
2023-06-26T11:07:21.170Z,97147.31
2023-06-26T11:09:28.408Z,97152.34
2023-06-26T11:12:03.028Z,97144.16
2023-06-26T11:14:06.641Z,97153.53
2023-06-26T11:16:11.003Z,97155.03
2023-06-26T11:18:14.467Z,97155.34
2023-06-26T11:20:18.949Z,97152.50
2023-06-26T11:22:22.150Z,97149.34
2023-06-26T11:24:26.108Z,97164.41
2023-06-26T11:26:28.917Z,97161.72
2023-06-26T11:28:31.740Z,97162.38
2023-06-26T11:30:34.507Z,97165.19
2023-06-26T11:32:38.843Z,97170.22
2023-06-26T11:34:43.794Z,97165.53
2023-06-26T11:36:47.676Z,97164.84
2023-06-26T11:38:55.162Z,97173.56
2023-06-26T11:40:58.262Z,97171.19
2023-06-26T11:43:01.943Z,97171.47
2023-06-26T11:45:04.658Z,97184.66
2023-06-26T11:47:08.016Z,97183.84
2023-06-26T11:49:12.656Z,97176.28
2023-06-26T11:51:16.073Z,97177.13
2023-06-26T11:53:18.811Z,97171.75
2023-06-26T11:55:21.466Z,97172.41
2023-06-26T11:57:24.085Z,97177.41
2023-06-26T11:59:35.117Z,97180.41
2023-06-26T12:01:39.703Z,97186.63
2023-06-26T12:03:42.575Z,97180.41
2023-06-26T12:05:47.017Z,97193.81
2023-06-26T12:07:51.386Z,97181.25
2023-06-26T12:09:54.666Z,97179.06
2023-06-26T12:11:58.752Z,97184.44
2023-06-26T12:14:02.752Z,97183.69
2023-06-26T12:16:05.997Z,97184.03
2023-06-26T12:18:11.610Z,97189.72
2023-06-26T12:20:21.129Z,97189.09
2023-06-26T12:22:25.168Z,97189.41
2023-06-26T12:24:28.608Z,97190.66
2023-06-26T12:26:31.580Z,97196.03
2023-06-26T12:28:39.039Z,97179.75
2023-06-26T12:30:42.636Z,97218.16
2023-06-26T12:32:47.288Z,97187.22
2023-06-26T12:34:55.539Z,97197.69
2023-06-26T12:37:35.079Z,97185.69
2023-06-26T12:44:05.201Z,97183.00
2023-06-26T12:50:29.212Z,97185.22
2023-06-26T12:53:31.986Z,97178.19
2023-06-26T12:56:29.884Z,97179.78
2023-06-26T13:01:51.224Z,97175.94
2023-06-26T13:11:31.666Z,97160.53
2023-06-26T13:14:30.461Z,97167.00
2023-06-26T13:16:33.186Z,97164.59
2023-06-26T13:18:35.888Z,97163.03
2023-06-26T13:20:40.827Z,97170.41
2023-06-26T13:22:43.744Z,97172.25
2023-06-26T13:24:47.290Z,97176.31
2023-06-26T13:26:51.353Z,97163.50
2023-06-26T13:28:54.801Z,97159.16
2023-06-26T13:30:57.472Z,97166.22
2023-06-26T13:33:00.282Z,97171.06
2023-06-26T13:35:03.244Z,97168.56
2023-06-26T13:37:07.531Z,97178.94
2023-06-26T13:39:10.227Z,97174.19
2023-06-26T13:41:12.973Z,97182.72
2023-06-26T13:43:17.011Z,97168.56
2023-06-26T13:47:29.190Z,97172.31
2023-06-26T13:49:31.799Z,97169.56
2023-06-26T13:51:34.384Z,97174.38
2023-06-26T13:53:36.975Z,97169.91
2023-06-26T13:55:39.942Z,97168.88
2023-06-26T13:57:43.600Z,97166.47
2023-06-26T13:59:48.670Z,97175.50
2023-06-26T14:01:51.522Z,97185.63
2023-06-26T14:03:54.177Z,97181.25
2023-06-26T14:05:56.833Z,97183.19
2023-06-26T14:07:59.885Z,97199.13
2023-06-26T14:10:02.717Z,97190.84
2023-06-26T14:12:06.159Z,97194.94
2023-06-26T14:14:08.781Z,97189.72
2023-06-26T14:16:12.803Z,97189.91
2023-06-26T14:18:15.613Z,97194.16
2023-06-26T14:20:19.558Z,97203.47
2023-06-26T14:22:22.251Z,97199.09
2023-06-26T14:24:24.915Z,97205.78
2023-06-26T14:26:27.644Z,97202.13
2023-06-26T14:28:30.264Z,97199.88
2023-06-26T14:30:32.917Z,97195.84
2023-06-26T14:32:38.661Z,97201.72
2023-06-26T14:34:42.045Z,97211.25
2023-06-26T14:36:44.684Z,97198.19
2023-06-26T14:38:47.445Z,97201.22
2023-06-26T14:40:50.494Z,97207.34
2023-06-26T14:42:54.121Z,97193.38
2023-06-26T14:44:57.110Z,97205.91
2023-06-26T14:47:00.186Z,97195.72
2023-06-26T14:49:05.585Z,97199.03
2023-06-26T14:51:08.211Z,97200.00
2023-06-26T14:53:10.881Z,97203.34
2023-06-26T14:55:13.606Z,97199.78
2023-06-26T14:57:16.917Z,97198.13
2023-06-26T14:59:19.574Z,97204.38
2023-06-26T15:01:23.265Z,97208.13
2023-06-26T15:03:26.321Z,97208.72
2023-06-26T15:05:30.470Z,97201.63
2023-06-26T15:07:33.112Z,97202.34
2023-06-26T15:09:35.797Z,97195.88
2023-06-26T15:11:38.513Z,97198.59
2023-06-26T15:13:41.094Z,97205.50
2023-06-26T15:15:43.710Z,97197.09
2023-06-26T15:17:46.452Z,97199.97
2023-06-26T15:19:49.562Z,97200.31
2023-06-26T15:21:53.572Z,97197.88
2023-06-26T15:23:56.230Z,97203.72
2023-06-26T15:25:58.846Z,97198.53
2023-06-26T15:28:01.464Z,97197.41
2023-06-26T15:30:04.533Z,97189.94
2023-06-26T15:32:08.132Z,97197.41
2023-06-26T15:34:13.668Z,97194.19
2023-06-26T15:36:17.199Z,97192.78
2023-06-26T15:38:21.164Z,97195.41
2023-06-26T15:40:23.773Z,97192.66
2023-06-26T15:42:30.028Z,97189.09
2023-06-26T15:44:33.594Z,97186.41
2023-06-26T15:46:36.607Z,97175.28
2023-06-26T15:48:41.600Z,97178.41
2023-06-26T15:50:44.763Z,97181.72
2023-06-26T15:52:47.781Z,97182.06
2023-06-26T15:54:51.742Z,97183.09
2023-06-26T15:56:56.741Z,97178.94
2023-06-26T15:58:59.444Z,97179.03
2023-06-26T16:01:02.600Z,97181.91
2023-06-26T16:03:07.945Z,97174.38
2023-06-26T16:05:11.106Z,97176.22
2023-06-26T16:07:13.920Z,97170.44
2023-06-26T16:09:16.625Z,97174.38
2023-06-26T16:11:20.799Z,97171.03
2023-06-26T16:13:23.399Z,97172.72
2023-06-26T16:15:26.040Z,97172.34
2023-06-26T16:17:28.685Z,97168.78
2023-06-26T16:19:31.372Z,97182.34
2023-06-26T16:21:33.956Z,97181.66
2023-06-26T16:23:36.582Z,97173.38
2023-06-26T16:25:39.384Z,97180.97
2023-06-26T16:27:45.066Z,97188.50
2023-06-26T16:29:48.499Z,97185.38
2023-06-26T16:31:51.227Z,97183.03
2023-06-26T16:33:54.522Z,97180.63
2023-06-26T16:35:57.192Z,97186.59
2023-06-26T16:37:59.807Z,97187.31
2023-06-26T16:40:02.402Z,97193.13
2023-06-26T16:42:05.506Z,97188.34
2023-06-26T16:44:09.471Z,97195.97
2023-06-26T16:46:12.106Z,97196.81
2023-06-26T16:48:14.948Z,97199.34
2023-06-26T16:50:17.860Z,97206.66
2023-06-26T16:52:20.589Z,97198.66
2023-06-26T16:54:23.305Z,97208.81
2023-06-26T16:56:25.907Z,97218.56
2023-06-26T16:58:28.568Z,97214.03
2023-06-26T17:00:32.509Z,97225.03
2023-06-26T17:02:35.310Z,97228.75
2023-06-26T17:04:38.067Z,97220.69
2023-06-26T17:06:40.665Z,97217.75
2023-06-26T17:08:43.298Z,97232.28
2023-06-26T17:10:45.945Z,97232.78
2023-06-26T17:12:48.770Z,97237.13
2023-06-26T17:14:51.365Z,97240.09
2023-06-26T17:16:55.512Z,97236.47
2023-06-26T17:18:58.173Z,97251.66
2023-06-26T17:21:01.242Z,97243.78
2023-06-26T17:23:04.306Z,97247.47
2023-06-26T17:25:09.445Z,97247.47
2023-06-26T17:27:15.289Z,97251.56
2023-06-26T17:29:17.960Z,97248.22
2023-06-26T17:31:20.660Z,97254.13
2023-06-26T17:33:24.762Z,97259.38
2023-06-26T17:35:28.449Z,97259.56
2023-06-26T17:37:31.068Z,97264.31
2023-06-26T17:39:34.178Z,97257.47
2023-06-26T17:41:36.833Z,97257.47
2023-06-26T17:43:39.502Z,97257.53
2023-06-26T17:45:42.276Z,97261.72
2023-06-26T17:47:44.958Z,97261.41
2023-06-26T17:49:48.939Z,97268.63
2023-06-26T17:51:51.712Z,97272.16
2023-06-26T17:53:54.324Z,97266.97
2023-06-26T17:55:57.017Z,97274.09
2023-06-26T17:57:59.783Z,97270.75
2023-06-26T18:00:02.470Z,97277.16
2023-06-26T18:02:05.476Z,97280.72
2023-06-26T18:04:09.087Z,97298.19
2023-06-26T18:06:13.455Z,97298.03
2023-06-26T18:08:16.092Z,97297.16
2023-06-26T18:10:18.721Z,97308.75
2023-06-26T18:12:21.450Z,97308.25
2023-06-26T18:14:24.040Z,97308.78
2023-06-26T18:16:26.862Z,97316.22
2023-06-26T18:18:29.505Z,97325.63
2023-06-26T18:20:32.088Z,97323.66
2023-06-26T18:22:36.080Z,97328.16
2023-06-26T18:24:39.366Z,97325.16
2023-06-26T18:26:41.985Z,97327.34
2023-06-26T18:28:44.747Z,97335.09
2023-06-26T18:30:49.930Z,97334.28
2023-06-26T18:32:55.211Z,97335.78
2023-06-26T18:34:57.851Z,97340.66
2023-06-26T18:37:00.478Z,97343.16
2023-06-26T18:39:05.545Z,97346.34
2023-06-26T18:41:08.297Z,97342.31
2023-06-26T18:43:12.031Z,97349.69
2023-06-26T18:45:14.952Z,97348.19
2023-06-26T18:47:17.824Z,97365.13
2023-06-26T18:49:20.439Z,97363.09
2023-06-26T18:51:23.446Z,97372.50
2023-06-26T18:53:26.350Z,97366.13
2023-06-26T18:55:33.078Z,97364.44
2023-06-26T18:57:38.427Z,97369.78
2023-06-26T18:59:41.040Z,97383.88
2023-06-26T19:01:44.994Z,97379.31
2023-06-26T19:03:47.709Z,97385.47
2023-06-26T19:05:50.333Z,97384.78
2023-06-26T19:07:53.833Z,97394.16
2023-06-26T19:10:00.437Z,97391.44
2023-06-26T19:12:05.038Z,97382.38
2023-06-26T19:14:07.688Z,97388.06
2023-06-26T19:16:10.406Z,97386.69
2023-06-26T19:18:15.073Z,97387.88
2023-06-26T19:20:19.538Z,97388.50
2023-06-26T19:22:22.461Z,97389.00
2023-06-26T19:24:25.092Z,97389.50
2023-06-26T19:26:27.951Z,97389.91
2023-06-26T19:28:31.935Z,97397.59
2023-06-26T19:30:34.761Z,97409.63
2023-06-26T19:32:37.644Z,97408.59
2023-06-26T19:34:40.355Z,97408.41
2023-06-26T19:36:44.432Z,97412.41
2023-06-26T19:38:47.037Z,97409.53
2023-06-26T19:40:49.707Z,97423.84
2023-06-26T19:42:52.398Z,97427.97
2023-06-26T19:44:56.320Z,97418.59
2023-06-26T19:46:59.669Z,97431.97
2023-06-26T19:49:02.316Z,97437.53
2023-06-26T19:51:05.293Z,97434.66
2023-06-26T19:53:08.509Z,97441.94
2023-06-26T19:55:12.367Z,97441.25
2023-06-26T19:57:15.381Z,97449.00
2023-06-26T19:59:18.038Z,97463.66
2023-06-26T20:01:24.049Z,97458.91
2023-06-26T20:03:26.799Z,97460.25
2023-06-26T20:05:29.442Z,97467.34
2023-06-26T20:07:33.039Z,97466.41
2023-06-26T20:09:36.004Z,97470.44
2023-06-26T20:11:38.705Z,97465.41
2023-06-26T20:13:41.325Z,97472.75
2023-06-26T20:15:44.172Z,97483.59
2023-06-26T20:17:48.257Z,97482.19
2023-06-26T20:19:50.888Z,97482.81
2023-06-26T20:21:53.516Z,97485.63
2023-06-26T20:23:56.111Z,97489.28
2023-06-26T20:25:58.717Z,97492.66
2023-06-26T20:28:01.458Z,97494.47
2023-06-26T20:30:04.190Z,97495.63
2023-06-26T20:32:07.399Z,97499.16
2023-06-26T20:34:11.441Z,97494.09
2023-06-26T20:36:14.035Z,97501.97
2023-06-26T20:38:19.240Z,97506.16
2023-06-26T20:40:23.115Z,97501.97
2023-06-26T20:42:26.119Z,97496.63
2023-06-26T20:44:29.214Z,97497.59
2023-06-26T20:46:33.907Z,97500.97
2023-06-26T20:48:38.362Z,97503.63
2023-06-26T20:50:42.876Z,97498.00
2023-06-26T20:52:45.942Z,97504.50
2023-06-26T20:54:48.935Z,97505.78
2023-06-26T20:56:51.565Z,97503.94
2023-06-26T20:58:54.179Z,97502.25
2023-06-26T21:00:56.848Z,97503.56
2023-06-26T21:02:59.707Z,97508.06
2023-06-26T21:05:02.424Z,97507.19
2023-06-26T21:07:07.987Z,97511.03
2023-06-26T21:09:10.667Z,97507.81
2023-06-26T21:11:13.243Z,97507.81
2023-06-26T21:13:16.012Z,97509.50
2023-06-26T21:15:18.699Z,97511.25
2023-06-26T21:17:21.344Z,97514.59
2023-06-26T21:19:24.127Z,97523.50
2023-06-26T21:21:26.753Z,97519.88
2023-06-26T21:23:30.754Z,97520.16
2023-06-26T21:25:33.438Z,97528.31
2023-06-26T21:27:36.340Z,97527.91
2023-06-26T21:29:38.957Z,97528.19
2023-06-26T21:31:41.571Z,97532.28
2023-06-26T21:33:44.201Z,97535.66
2023-06-26T21:35:48.198Z,97541.59
2023-06-26T21:37:51.464Z,97543.69
2023-06-26T21:39:55.420Z,97541.59
2023-06-26T21:41:58.124Z,97555.38
2023-06-26T21:44:00.801Z,97547.50
2023-06-26T21:46:03.542Z,97548.78
2023-06-26T21:48:07.321Z,97555.22
2023-06-26T21:50:10.834Z,97545.81
2023-06-26T21:52:14.004Z,97559.56
2023-06-26T21:54:16.723Z,97557.19
2023-06-26T21:56:20.735Z,97558.44
2023-06-26T21:58:23.939Z,97557.06
2023-06-26T22:00:29.438Z,97552.28
2023-06-26T22:02:32.047Z,97557.19
2023-06-26T22:04:37.286Z,97558.47
2023-06-26T22:06:40.432Z,97560.81
2023-06-26T22:08:43.141Z,97559.28
2023-06-26T22:10:45.829Z,97567.56
2023-06-26T22:12:49.913Z,97557.03
2023-06-26T22:14:52.549Z,97560.97
2023-06-26T22:16:55.119Z,97561.22
2023-06-26T22:18:57.745Z,97564.88
2023-06-26T22:21:00.381Z,97561.09
2023-06-26T22:23:03.188Z,97559.56
2023-06-26T22:25:06.567Z,97562.47
2023-06-26T22:27:09.301Z,97559.97
2023-06-26T22:29:13.655Z,97560.81
2023-06-26T22:31:16.322Z,97567.22
2023-06-26T22:33:18.993Z,97563.00
2023-06-26T22:35:21.722Z,97560.63
2023-06-26T22:37:25.405Z,97565.09
2023-06-26T22:39:28.027Z,97563.41
2023-06-26T22:41:30.623Z,97558.09
2023-06-26T22:43:34.552Z,97557.53
2023-06-26T22:45:38.789Z,97568.44
2023-06-26T22:47:45.534Z,97560.72
2023-06-26T22:49:49.839Z,97561.72
2023-06-26T22:51:52.637Z,97560.88
2023-06-26T22:53:55.295Z,97564.25
2023-06-26T22:55:57.859Z,97565.50
2023-06-26T22:58:00.487Z,97564.78
2023-06-26T23:00:09.695Z,97556.34
2023-06-26T23:02:13.844Z,97556.63
2023-06-26T23:04:16.558Z,97559.44
2023-06-26T23:06:22.635Z,97560.53
2023-06-26T23:08:26.220Z,97558.88
2023-06-26T23:10:28.975Z,97560.94
2023-06-26T23:12:31.851Z,97557.59
2023-06-26T23:14:34.518Z,97561.38
2023-06-26T23:16:38.346Z,97565.13
2023-06-26T23:18:42.402Z,97562.16
2023-06-26T23:20:46.279Z,97563.25
2023-06-26T23:22:48.917Z,97563.53
2023-06-26T23:24:58.427Z,97562.97
2023-06-26T23:27:01.888Z,97563.94
2023-06-26T23:29:05.235Z,97561.28
2023-06-26T23:31:07.893Z,97560.44
2023-06-26T23:33:10.535Z,97563.25
2023-06-26T23:35:14.756Z,97565.19
2023-06-26T23:37:26.618Z,97564.34
2023-06-26T23:39:29.424Z,97562.94
2023-06-26T23:41:32.840Z,97574.53
2023-06-26T23:43:35.436Z,97568.34
2023-06-26T23:45:39.162Z,97557.81
2023-06-26T23:47:41.907Z,97564.13
2023-06-26T23:49:44.496Z,97566.06
2023-06-26T23:51:49.853Z,97567.75
2023-06-26T23:53:53.387Z,97568.88
2023-06-26T23:55:56.001Z,97567.31
2023-06-26T23:57:58.698Z,97560.59
